sensor_id;sensor_type;location;lat;lon;timestamp;P1;durP1;ratioP1;P2;durP2;ratioP2
74162;SDS011;62515;52.758;5.076;2023-03-19T00:01:36;21.55;;;17.90;;
74162;SDS011;62515;52.758;5.076;2023-03-19T00:04:03;19.45;;;13.98;;
74162;SDS011;62515;52.758;5.076;2023-03-19T00:06:31;19.90;;;15.32;;
74162;SDS011;62515;52.758;5.076;2023-03-19T00:08:58;23.05;;;14.30;;
74162;SDS011;62515;52.758;5.076;2023-03-19T00:11:25;21.20;;;14.10;;
74162;SDS011;62515;52.758;5.076;2023-03-19T00:13:51;21.20;;;14.82;;
74162;SDS011;62515;52.758;5.076;2023-03-19T00:16:18;18.25;;;15.38;;
74162;SDS011;62515;52.758;5.076;2023-03-19T00:18:45;19.95;;;14.25;;
74162;SDS011;62515;52.758;5.076;2023-03-19T00:21:12;25.38;;;14.68;;
74162;SDS011;62515;52.758;5.076;2023-03-19T00:23:40;20.13;;;14.60;;
74162;SDS011;62515;52.758;5.076;2023-03-19T00:26:07;18.70;;;13.82;;
74162;SDS011;62515;52.758;5.076;2023-03-19T00:28:36;17.45;;;15.02;;
74162;SDS011;62515;52.758;5.076;2023-03-19T00:31:07;20.80;;;14.25;;
74162;SDS011;62515;52.758;5.076;2023-03-19T00:33:35;19.65;;;14.45;;
74162;SDS011;62515;52.758;5.076;2023-03-19T00:36:02;17.70;;;14.57;;
74162;SDS011;62515;52.758;5.076;2023-03-19T00:38:29;19.10;;;14.75;;
74162;SDS011;62515;52.758;5.076;2023-03-19T00:40:58;21.10;;;14.82;;
74162;SDS011;62515;52.758;5.076;2023-03-19T00:43:24;18.35;;;15.23;;
74162;SDS011;62515;52.758;5.076;2023-03-19T00:45:51;21.52;;;18.00;;
74162;SDS011;62515;52.758;5.076;2023-03-19T00:48:18;20.52;;;14.43;;
74162;SDS011;62515;52.758;5.076;2023-03-19T00:50:45;18.67;;;14.30;;
74162;SDS011;62515;52.758;5.076;2023-03-19T00:53:12;19.17;;;13.60;;
74162;SDS011;62515;52.758;5.076;2023-03-19T00:55:39;19.70;;;14.15;;
74162;SDS011;62515;52.758;5.076;2023-03-19T00:58:07;24.45;;;19.00;;
74162;SDS011;62515;52.758;5.076;2023-03-19T01:00:35;18.85;;;13.80;;
74162;SDS011;62515;52.758;5.076;2023-03-19T01:03:02;21.85;;;15.10;;
74162;SDS011;62515;52.758;5.076;2023-03-19T01:05:30;20.48;;;14.43;;
74162;SDS011;62515;52.758;5.076;2023-03-19T01:07:57;22.10;;;15.68;;
74162;SDS011;62515;52.758;5.076;2023-03-19T01:10:24;19.23;;;14.93;;
74162;SDS011;62515;52.758;5.076;2023-03-19T01:12:51;22.02;;;16.33;;
74162;SDS011;62515;52.758;5.076;2023-03-19T01:15:19;25.08;;;22.65;;
74162;SDS011;62515;52.758;5.076;2023-03-19T01:17:46;28.77;;;17.65;;
74162;SDS011;62515;52.758;5.076;2023-03-19T01:20:13;26.63;;;20.48;;
74162;SDS011;62515;52.758;5.076;2023-03-19T01:22:40;26.00;;;21.15;;
74162;SDS011;62515;52.758;5.076;2023-03-19T01:25:08;25.30;;;15.82;;
74162;SDS011;62515;52.758;5.076;2023-03-19T01:27:38;25.90;;;16.63;;
74162;SDS011;62515;52.758;5.076;2023-03-19T01:30:06;25.15;;;18.30;;
74162;SDS011;62515;52.758;5.076;2023-03-19T01:33:14;27.10;;;18.08;;
74162;SDS011;62515;52.758;5.076;2023-03-19T01:36:02;25.20;;;17.02;;
74162;SDS011;62515;52.758;5.076;2023-03-19T01:38:47;24.42;;;17.08;;
74162;SDS011;62515;52.758;5.076;2023-03-19T01:41:14;26.35;;;16.95;;
74162;SDS011;62515;52.758;5.076;2023-03-19T01:43:42;23.80;;;16.75;;
74162;SDS011;62515;52.758;5.076;2023-03-19T01:46:38;31.20;;;19.10;;
74162;SDS011;62515;52.758;5.076;2023-03-19T01:49:25;28.35;;;18.77;;
74162;SDS011;62515;52.758;5.076;2023-03-19T01:52:20;28.77;;;17.92;;
74162;SDS011;62515;52.758;5.076;2023-03-19T01:55:18;28.98;;;17.48;;
74162;SDS011;62515;52.758;5.076;2023-03-19T01:58:03;34.20;;;24.00;;
74162;SDS011;62515;52.758;5.076;2023-03-19T02:00:52;33.53;;;24.05;;
74162;SDS011;62515;52.758;5.076;2023-03-19T02:03:20;31.52;;;20.58;;
74162;SDS011;62515;52.758;5.076;2023-03-19T02:06:11;31.90;;;21.48;;
74162;SDS011;62515;52.758;5.076;2023-03-19T02:08:39;32.95;;;21.33;;
74162;SDS011;62515;52.758;5.076;2023-03-19T02:11:07;32.75;;;20.42;;
74162;SDS011;62515;52.758;5.076;2023-03-19T02:13:34;32.60;;;20.80;;
74162;SDS011;62515;52.758;5.076;2023-03-19T02:16:01;35.25;;;22.48;;
74162;SDS011;62515;52.758;5.076;2023-03-19T02:18:28;30.42;;;20.80;;
74162;SDS011;62515;52.758;5.076;2023-03-19T02:20:57;30.83;;;19.70;;
74162;SDS011;62515;52.758;5.076;2023-03-19T02:23:31;31.50;;;19.35;;
74162;SDS011;62515;52.758;5.076;2023-03-19T02:26:13;27.27;;;18.35;;
74162;SDS011;62515;52.758;5.076;2023-03-19T02:28:42;28.67;;;18.02;;
74162;SDS011;62515;52.758;5.076;2023-03-19T02:31:14;24.92;;;16.38;;
74162;SDS011;62515;52.758;5.076;2023-03-19T02:33:42;27.65;;;17.05;;
74162;SDS011;62515;52.758;5.076;2023-03-19T02:36:11;23.73;;;13.68;;
74162;SDS011;62515;52.758;5.076;2023-03-19T02:38:42;22.27;;;15.85;;
74162;SDS011;62515;52.758;5.076;2023-03-19T02:41:12;25.55;;;14.23;;
74162;SDS011;62515;52.758;5.076;2023-03-19T02:43:40;19.45;;;12.52;;
74162;SDS011;62515;52.758;5.076;2023-03-19T02:46:08;26.05;;;16.83;;
74162;SDS011;62515;52.758;5.076;2023-03-19T02:48:39;21.13;;;11.80;;
74162;SDS011;62515;52.758;5.076;2023-03-19T02:51:06;22.02;;;13.60;;
74162;SDS011;62515;52.758;5.076;2023-03-19T02:53:33;24.95;;;13.52;;
74162;SDS011;62515;52.758;5.076;2023-03-19T02:55:59;23.30;;;13.82;;
74162;SDS011;62515;52.758;5.076;2023-03-19T02:58:28;22.42;;;13.32;;
74162;SDS011;62515;52.758;5.076;2023-03-19T03:00:55;21.95;;;13.52;;
74162;SDS011;62515;52.758;5.076;2023-03-19T03:03:22;22.88;;;13.85;;
74162;SDS011;62515;52.758;5.076;2023-03-19T03:05:49;24.63;;;13.63;;
74162;SDS011;62515;52.758;5.076;2023-03-19T03:08:16;24.90;;;14.00;;
74162;SDS011;62515;52.758;5.076;2023-03-19T03:10:42;29.00;;;15.65;;
74162;SDS011;62515;52.758;5.076;2023-03-19T03:13:10;25.90;;;17.13;;
74162;SDS011;62515;52.758;5.076;2023-03-19T03:15:39;30.08;;;15.05;;
74162;SDS011;62515;52.758;5.076;2023-03-19T03:18:05;30.08;;;18.30;;
74162;SDS011;62515;52.758;5.076;2023-03-19T03:20:35;34.10;;;15.40;;
74162;SDS011;62515;52.758;5.076;2023-03-19T03:23:03;32.70;;;15.95;;
74162;SDS011;62515;52.758;5.076;2023-03-19T03:25:30;27.92;;;14.57;;
74162;SDS011;62515;52.758;5.076;2023-03-19T03:27:57;32.72;;;16.08;;
74162;SDS011;62515;52.758;5.076;2023-03-19T03:30:23;37.53;;;16.48;;
74162;SDS011;62515;52.758;5.076;2023-03-19T03:32:52;29.25;;;14.80;;
74162;SDS011;62515;52.758;5.076;2023-03-19T03:35:19;30.05;;;14.50;;
74162;SDS011;62515;52.758;5.076;2023-03-19T03:37:46;26.00;;;14.82;;
74162;SDS011;62515;52.758;5.076;2023-03-19T03:40:13;33.70;;;17.67;;
74162;SDS011;62515;52.758;5.076;2023-03-19T03:42:40;31.60;;;15.23;;
74162;SDS011;62515;52.758;5.076;2023-03-19T03:45:09;32.92;;;13.73;;
74162;SDS011;62515;52.758;5.076;2023-03-19T03:47:38;27.77;;;14.15;;
74162;SDS011;62515;52.758;5.076;2023-03-19T03:50:07;34.25;;;15.05;;
74162;SDS011;62515;52.758;5.076;2023-03-19T03:52:35;26.45;;;13.48;;
74162;SDS011;62515;52.758;5.076;2023-03-19T03:55:01;27.83;;;11.95;;
74162;SDS011;62515;52.758;5.076;2023-03-19T03:57:29;29.17;;;14.75;;
74162;SDS011;62515;52.758;5.076;2023-03-19T03:59:56;23.63;;;15.00;;
74162;SDS011;62515;52.758;5.076;2023-03-19T04:02:22;31.38;;;12.82;;
74162;SDS011;62515;52.758;5.076;2023-03-19T04:04:49;28.25;;;12.40;;
74162;SDS011;62515;52.758;5.076;2023-03-19T04:07:18;23.30;;;10.18;;
74162;SDS011;62515;52.758;5.076;2023-03-19T04:09:52;23.55;;;11.60;;
74162;SDS011;62515;52.758;5.076;2023-03-19T04:12:19;29.85;;;11.35;;
74162;SDS011;62515;52.758;5.076;2023-03-19T04:14:46;27.83;;;13.50;;
74162;SDS011;62515;52.758;5.076;2023-03-19T04:17:13;28.15;;;11.55;;
74162;SDS011;62515;52.758;5.076;2023-03-19T04:19:40;28.98;;;12.93;;
74162;SDS011;62515;52.758;5.076;2023-03-19T04:22:07;25.65;;;13.95;;
74162;SDS011;62515;52.758;5.076;2023-03-19T04:24:35;30.33;;;12.48;;
74162;SDS011;62515;52.758;5.076;2023-03-19T04:27:02;27.23;;;12.45;;
74162;SDS011;62515;52.758;5.076;2023-03-19T04:29:29;27.77;;;13.20;;
74162;SDS011;62515;52.758;5.076;2023-03-19T04:31:57;30.52;;;12.90;;
74162;SDS011;62515;52.758;5.076;2023-03-19T04:34:24;39.90;;;14.43;;
74162;SDS011;62515;52.758;5.076;2023-03-19T04:36:51;26.85;;;11.30;;
74162;SDS011;62515;52.758;5.076;2023-03-19T04:39:17;28.23;;;11.75;;
74162;SDS011;62515;52.758;5.076;2023-03-19T04:41:47;31.10;;;12.32;;
74162;SDS011;62515;52.758;5.076;2023-03-19T04:44:26;30.20;;;12.60;;
74162;SDS011;62515;52.758;5.076;2023-03-19T04:46:53;28.15;;;12.23;;
74162;SDS011;62515;52.758;5.076;2023-03-19T04:49:21;28.52;;;12.57;;
74162;SDS011;62515;52.758;5.076;2023-03-19T04:51:49;32.72;;;12.65;;
74162;SDS011;62515;52.758;5.076;2023-03-19T04:54:16;29.50;;;14.10;;
74162;SDS011;62515;52.758;5.076;2023-03-19T04:56:43;41.85;;;14.80;;
74162;SDS011;62515;52.758;5.076;2023-03-19T04:59:11;43.47;;;17.15;;
74162;SDS011;62515;52.758;5.076;2023-03-19T05:01:38;34.88;;;15.40;;
74162;SDS011;62515;52.758;5.076;2023-03-19T05:04:07;29.60;;;14.63;;
74162;SDS011;62515;52.758;5.076;2023-03-19T05:06:37;52.03;;;20.67;;
74162;SDS011;62515;52.758;5.076;2023-03-19T05:09:05;43.22;;;17.33;;
74162;SDS011;62515;52.758;5.076;2023-03-19T05:11:32;44.28;;;17.30;;
74162;SDS011;62515;52.758;5.076;2023-03-19T05:14:04;50.28;;;20.85;;
74162;SDS011;62515;52.758;5.076;2023-03-19T05:16:56;53.15;;;20.90;;
74162;SDS011;62515;52.758;5.076;2023-03-19T05:19:25;65.97;;;21.00;;
74162;SDS011;62515;52.758;5.076;2023-03-19T05:21:53;65.97;;;20.80;;
74162;SDS011;62515;52.758;5.076;2023-03-19T05:24:22;54.78;;;19.70;;
74162;SDS011;62515;52.758;5.076;2023-03-19T05:26:50;58.35;;;21.10;;
74162;SDS011;62515;52.758;5.076;2023-03-19T05:29:42;54.50;;;21.67;;
74162;SDS011;62515;52.758;5.076;2023-03-19T05:32:18;68.05;;;26.20;;
74162;SDS011;62515;52.758;5.076;2023-03-19T05:34:45;57.35;;;23.15;;
74162;SDS011;62515;52.758;5.076;2023-03-19T05:37:12;82.68;;;29.95;;
74162;SDS011;62515;52.758;5.076;2023-03-19T05:39:40;59.92;;;25.30;;
74162;SDS011;62515;52.758;5.076;2023-03-19T05:42:10;58.30;;;24.98;;
74162;SDS011;62515;52.758;5.076;2023-03-19T05:44:37;84.00;;;35.40;;
74162;SDS011;62515;52.758;5.076;2023-03-19T05:47:17;50.05;;;19.95;;
74162;SDS011;62515;52.758;5.076;2023-03-19T05:49:50;81.65;;;35.10;;
74162;SDS011;62515;52.758;5.076;2023-03-19T05:52:17;77.47;;;28.98;;
74162;SDS011;62515;52.758;5.076;2023-03-19T05:54:45;85.40;;;30.65;;
74162;SDS011;62515;52.758;5.076;2023-03-19T05:57:32;57.80;;;20.63;;
74162;SDS011;62515;52.758;5.076;2023-03-19T06:00:05;97.97;;;27.08;;
74162;SDS011;62515;52.758;5.076;2023-03-19T06:02:35;75.65;;;29.80;;
74162;SDS011;62515;52.758;5.076;2023-03-19T06:05:35;72.80;;;20.08;;
74162;SDS011;62515;52.758;5.076;2023-03-19T06:08:15;68.70;;;27.15;;
74162;SDS011;62515;52.758;5.076;2023-03-19T06:11:14;50.10;;;18.00;;
74162;SDS011;62515;52.758;5.076;2023-03-19T06:13:43;45.65;;;18.58;;
74162;SDS011;62515;52.758;5.076;2023-03-19T06:16:14;64.78;;;19.67;;
74162;SDS011;62515;52.758;5.076;2023-03-19T06:18:53;60.88;;;20.55;;
74162;SDS011;62515;52.758;5.076;2023-03-19T06:21:21;76.95;;;19.40;;
74162;SDS011;62515;52.758;5.076;2023-03-19T06:23:49;74.53;;;22.13;;
74162;SDS011;62515;52.758;5.076;2023-03-19T06:26:20;76.88;;;27.95;;
74162;SDS011;62515;52.758;5.076;2023-03-19T06:28:52;75.90;;;19.80;;
74162;SDS011;62515;52.758;5.076;2023-03-19T06:31:20;85.95;;;21.13;;
74162;SDS011;62515;52.758;5.076;2023-03-19T06:34:11;88.20;;;22.75;;
74162;SDS011;62515;52.758;5.076;2023-03-19T06:36:40;71.95;;;18.90;;
74162;SDS011;62515;52.758;5.076;2023-03-19T06:39:10;82.70;;;20.15;;
74162;SDS011;62515;52.758;5.076;2023-03-19T06:41:36;94.47;;;26.98;;
74162;SDS011;62515;52.758;5.076;2023-03-19T06:44:14;89.05;;;22.77;;
74162;SDS011;62515;52.758;5.076;2023-03-19T06:46:41;107.13;;;24.88;;
74162;SDS011;62515;52.758;5.076;2023-03-19T06:49:08;98.78;;;24.35;;
74162;SDS011;62515;52.758;5.076;2023-03-19T06:51:36;110.20;;;23.40;;
74162;SDS011;62515;52.758;5.076;2023-03-19T06:54:03;113.68;;;50.15;;
74162;SDS011;62515;52.758;5.076;2023-03-19T06:56:30;88.70;;;24.38;;
74162;SDS011;62515;52.758;5.076;2023-03-19T06:58:56;105.05;;;32.00;;
74162;SDS011;62515;52.758;5.076;2023-03-19T07:01:23;79.93;;;22.92;;
74162;SDS011;62515;52.758;5.076;2023-03-19T07:03:50;87.78;;;24.83;;
74162;SDS011;62515;52.758;5.076;2023-03-19T07:06:17;73.97;;;22.88;;
74162;SDS011;62515;52.758;5.076;2023-03-19T07:08:45;76.55;;;21.77;;
74162;SDS011;62515;52.758;5.076;2023-03-19T07:11:12;82.88;;;21.77;;
74162;SDS011;62515;52.758;5.076;2023-03-19T07:13:40;84.00;;;22.98;;
74162;SDS011;62515;52.758;5.076;2023-03-19T07:16:07;58.45;;;19.90;;
74162;SDS011;62515;52.758;5.076;2023-03-19T07:18:34;50.97;;;19.92;;
74162;SDS011;62515;52.758;5.076;2023-03-19T07:21:01;61.13;;;25.58;;
74162;SDS011;62515;52.758;5.076;2023-03-19T07:23:29;56.65;;;20.17;;
74162;SDS011;62515;52.758;5.076;2023-03-19T07:25:57;63.83;;;21.13;;
74162;SDS011;62515;52.758;5.076;2023-03-19T07:28:26;66.90;;;26.55;;
74162;SDS011;62515;52.758;5.076;2023-03-19T07:30:53;65.97;;;20.38;;
74162;SDS011;62515;52.758;5.076;2023-03-19T07:33:20;65.40;;;22.42;;
74162;SDS011;62515;52.758;5.076;2023-03-19T07:35:47;63.10;;;20.63;;
74162;SDS011;62515;52.758;5.076;2023-03-19T07:38:14;64.28;;;23.20;;
74162;SDS011;62515;52.758;5.076;2023-03-19T07:40:42;49.83;;;22.88;;
74162;SDS011;62515;52.758;5.076;2023-03-19T07:43:28;56.40;;;21.50;;
74162;SDS011;62515;52.758;5.076;2023-03-19T07:45:55;57.83;;;22.13;;
74162;SDS011;62515;52.758;5.076;2023-03-19T07:48:22;47.58;;;22.80;;
74162;SDS011;62515;52.758;5.076;2023-03-19T07:50:49;48.08;;;21.75;;
74162;SDS011;62515;52.758;5.076;2023-03-19T07:53:31;37.65;;;18.08;;
74162;SDS011;62515;52.758;5.076;2023-03-19T07:56:07;41.30;;;19.45;;
74162;SDS011;62515;52.758;5.076;2023-03-19T08:04:40;43.35;;;17.48;;
74162;SDS011;62515;52.758;5.076;2023-03-19T08:07:07;34.75;;;16.92;;
74162;SDS011;62515;52.758;5.076;2023-03-19T08:09:37;46.50;;;19.90;;
74162;SDS011;62515;52.758;5.076;2023-03-19T08:12:06;48.58;;;19.52;;
74162;SDS011;62515;52.758;5.076;2023-03-19T08:14:35;47.35;;;18.38;;
74162;SDS011;62515;52.758;5.076;2023-03-19T08:17:06;40.83;;;17.67;;
74162;SDS011;62515;52.758;5.076;2023-03-19T08:36:02;29.58;;;15.40;;
74162;SDS011;62515;52.758;5.076;2023-03-19T08:38:45;29.20;;;16.25;;
74162;SDS011;62515;52.758;5.076;2023-03-19T08:41:28;30.98;;;15.20;;
74162;SDS011;62515;52.758;5.076;2023-03-19T08:44:01;56.85;;;51.30;;
74162;SDS011;62515;52.758;5.076;2023-03-19T08:46:29;37.15;;;27.55;;
74162;SDS011;62515;52.758;5.076;2023-03-19T08:49:08;25.40;;;15.90;;
74162;SDS011;62515;52.758;5.076;2023-03-19T08:51:35;29.60;;;16.98;;
74162;SDS011;62515;52.758;5.076;2023-03-19T08:54:15;30.13;;;15.13;;
74162;SDS011;62515;52.758;5.076;2023-03-19T08:56:49;31.60;;;18.17;;
74162;SDS011;62515;52.758;5.076;2023-03-19T08:59:25;37.15;;;17.65;;
74162;SDS011;62515;52.758;5.076;2023-03-19T09:01:54;28.02;;;15.30;;
74162;SDS011;62515;52.758;5.076;2023-03-19T09:07:48;30.70;;;16.60;;
74162;SDS011;62515;52.758;5.076;2023-03-19T09:10:29;30.52;;;16.55;;
74162;SDS011;62515;52.758;5.076;2023-03-19T09:13:10;32.28;;;17.38;;
74162;SDS011;62515;52.758;5.076;2023-03-19T09:15:51;35.00;;;18.05;;
74162;SDS011;62515;52.758;5.076;2023-03-19T09:18:34;33.03;;;19.27;;
74162;SDS011;62515;52.758;5.076;2023-03-19T09:21:11;37.60;;;18.02;;
74162;SDS011;62515;52.758;5.076;2023-03-19T09:42:44;39.92;;;19.85;;
74162;SDS011;62515;52.758;5.076;2023-03-19T09:45:33;40.42;;;20.33;;
74162;SDS011;62515;52.758;5.076;2023-03-19T09:48:15;41.13;;;22.73;;
74162;SDS011;62515;52.758;5.076;2023-03-19T09:50:48;25.67;;;15.68;;
74162;SDS011;62515;52.758;5.076;2023-03-19T09:53:22;27.20;;;16.67;;
74162;SDS011;62515;52.758;5.076;2023-03-19T09:59:00;20.50;;;14.95;;
74162;SDS011;62515;52.758;5.076;2023-03-19T10:01:27;21.65;;;17.70;;
74162;SDS011;62515;52.758;5.076;2023-03-19T10:04:03;22.45;;;13.65;;
74162;SDS011;62515;52.758;5.076;2023-03-19T10:07:01;18.65;;;12.90;;
74162;SDS011;62515;52.758;5.076;2023-03-19T10:09:37;19.05;;;12.85;;
74162;SDS011;62515;52.758;5.076;2023-03-19T10:12:21;19.77;;;13.00;;
74162;SDS011;62515;52.758;5.076;2023-03-19T10:15:11;23.27;;;13.32;;
74162;SDS011;62515;52.758;5.076;2023-03-19T10:17:46;20.75;;;12.27;;
74162;SDS011;62515;52.758;5.076;2023-03-19T10:20:26;18.30;;;12.75;;
74162;SDS011;62515;52.758;5.076;2023-03-19T10:22:58;25.38;;;15.55;;
74162;SDS011;62515;52.758;5.076;2023-03-19T10:25:30;24.85;;;16.42;;
74162;SDS011;62515;52.758;5.076;2023-03-19T10:27:59;25.35;;;14.70;;
74162;SDS011;62515;52.758;5.076;2023-03-19T10:30:49;29.73;;;16.55;;
74162;SDS011;62515;52.758;5.076;2023-03-19T10:33:23;25.50;;;15.00;;
74162;SDS011;62515;52.758;5.076;2023-03-19T10:35:54;21.35;;;12.07;;
74162;SDS011;62515;52.758;5.076;2023-03-19T10:38:24;33.83;;;19.50;;
74162;SDS011;62515;52.758;5.076;2023-03-19T10:41:07;27.65;;;17.55;;
74162;SDS011;62515;52.758;5.076;2023-03-19T10:43:46;25.88;;;15.05;;
74162;SDS011;62515;52.758;5.076;2023-03-19T10:46:20;24.52;;;15.60;;
74162;SDS011;62515;52.758;5.076;2023-03-19T10:48:47;24.85;;;17.52;;
74162;SDS011;62515;52.758;5.076;2023-03-19T10:51:13;23.35;;;15.85;;
74162;SDS011;62515;52.758;5.076;2023-03-19T10:53:42;24.10;;;14.15;;
74162;SDS011;62515;52.758;5.076;2023-03-19T10:56:15;26.30;;;15.75;;
74162;SDS011;62515;52.758;5.076;2023-03-19T10:58:55;28.45;;;17.73;;
74162;SDS011;62515;52.758;5.076;2023-03-19T11:01:27;23.00;;;15.20;;
74162;SDS011;62515;52.758;5.076;2023-03-19T11:03:58;23.30;;;13.70;;
74162;SDS011;62515;52.758;5.076;2023-03-19T11:06:28;21.27;;;13.48;;
74162;SDS011;62515;52.758;5.076;2023-03-19T11:08:58;28.33;;;15.80;;
74162;SDS011;62515;52.758;5.076;2023-03-19T11:11:31;40.60;;;34.95;;
74162;SDS011;62515;52.758;5.076;2023-03-19T11:14:06;26.52;;;16.48;;
74162;SDS011;62515;52.758;5.076;2023-03-19T11:16:47;31.17;;;16.40;;
74162;SDS011;62515;52.758;5.076;2023-03-19T11:19:17;31.33;;;16.38;;
74162;SDS011;62515;52.758;5.076;2023-03-19T11:24:35;25.55;;;15.32;;
74162;SDS011;62515;52.758;5.076;2023-03-19T11:27:03;31.85;;;16.40;;
74162;SDS011;62515;52.758;5.076;2023-03-19T11:29:30;32.22;;;17.17;;
74162;SDS011;62515;52.758;5.076;2023-03-19T11:32:02;35.60;;;19.08;;
74162;SDS011;62515;52.758;5.076;2023-03-19T11:34:48;35.20;;;22.73;;
74162;SDS011;62515;52.758;5.076;2023-03-19T11:37:26;29.85;;;18.00;;
74162;SDS011;62515;52.758;5.076;2023-03-19T11:40:01;31.58;;;16.73;;
74162;SDS011;62515;52.758;5.076;2023-03-19T11:42:39;34.67;;;17.80;;
74162;SDS011;62515;52.758;5.076;2023-03-19T11:45:16;29.42;;;16.08;;
74162;SDS011;62515;52.758;5.076;2023-03-19T11:47:57;30.38;;;15.85;;
74162;SDS011;62515;52.758;5.076;2023-03-19T11:50:39;26.27;;;15.57;;
74162;SDS011;62515;52.758;5.076;2023-03-19T11:53:18;29.45;;;15.43;;
74162;SDS011;62515;52.758;5.076;2023-03-19T11:55:51;26.15;;;15.52;;
74162;SDS011;62515;52.758;5.076;2023-03-19T12:01:24;28.58;;;14.57;;
74162;SDS011;62515;52.758;5.076;2023-03-19T12:07:03;26.08;;;17.70;;
74162;SDS011;62515;52.758;5.076;2023-03-19T12:09:40;24.05;;;13.68;;
74162;SDS011;62515;52.758;5.076;2023-03-19T12:12:16;19.65;;;12.98;;
74162;SDS011;62515;52.758;5.076;2023-03-19T12:14:56;21.17;;;12.80;;
74162;SDS011;62515;52.758;5.076;2023-03-19T12:17:37;21.08;;;12.20;;
74162;SDS011;62515;52.758;5.076;2023-03-19T12:20:16;22.85;;;15.13;;
74162;SDS011;62515;52.758;5.076;2023-03-19T12:22:53;23.58;;;13.52;;
74162;SDS011;62515;52.758;5.076;2023-03-19T12:25:32;26.90;;;15.88;;
74162;SDS011;62515;52.758;5.076;2023-03-19T12:28:16;27.20;;;16.98;;
74162;SDS011;62515;52.758;5.076;2023-03-19T12:30:52;28.50;;;18.98;;
74162;SDS011;62515;52.758;5.076;2023-03-19T12:33:35;34.67;;;19.40;;
74162;SDS011;62515;52.758;5.076;2023-03-19T12:36:14;34.90;;;20.60;;
74162;SDS011;62515;52.758;5.076;2023-03-19T12:38:46;34.70;;;18.20;;
74162;SDS011;62515;52.758;5.076;2023-03-19T12:41:17;43.78;;;21.60;;
74162;SDS011;62515;52.758;5.076;2023-03-19T12:43:50;46.35;;;25.60;;
74162;SDS011;62515;52.758;5.076;2023-03-19T12:46:23;33.85;;;18.73;;
74162;SDS011;62515;52.758;5.076;2023-03-19T12:48:55;36.72;;;20.38;;
74162;SDS011;62515;52.758;5.076;2023-03-19T12:51:27;33.08;;;19.30;;
74162;SDS011;62515;52.758;5.076;2023-03-19T12:54:00;33.90;;;18.73;;
74162;SDS011;62515;52.758;5.076;2023-03-19T12:56:32;34.53;;;19.65;;
74162;SDS011;62515;52.758;5.076;2023-03-19T12:59:07;32.25;;;18.92;;
74162;SDS011;62515;52.758;5.076;2023-03-19T13:01:40;30.42;;;17.52;;
74162;SDS011;62515;52.758;5.076;2023-03-19T13:04:12;26.17;;;17.25;;
74162;SDS011;62515;52.758;5.076;2023-03-19T13:06:43;35.13;;;18.02;;
74162;SDS011;62515;52.758;5.076;2023-03-19T13:09:19;36.17;;;18.17;;
74162;SDS011;62515;52.758;5.076;2023-03-19T13:11:54;33.97;;;16.77;;
74162;SDS011;62515;52.758;5.076;2023-03-19T13:14:25;33.03;;;15.95;;
74162;SDS011;62515;52.758;5.076;2023-03-19T13:17:01;25.90;;;15.45;;
74162;SDS011;62515;52.758;5.076;2023-03-19T13:19:39;31.00;;;16.30;;
74162;SDS011;62515;52.758;5.076;2023-03-19T13:22:13;26.95;;;15.15;;
74162;SDS011;62515;52.758;5.076;2023-03-19T13:24:44;31.55;;;17.08;;
74162;SDS011;62515;52.758;5.076;2023-03-19T13:27:13;31.65;;;16.33;;
74162;SDS011;62515;52.758;5.076;2023-03-19T13:29:55;30.30;;;17.40;;
74162;SDS011;62515;52.758;5.076;2023-03-19T13:32:28;34.45;;;18.48;;
74162;SDS011;62515;52.758;5.076;2023-03-19T13:35:08;40.08;;;20.00;;
74162;SDS011;62515;52.758;5.076;2023-03-19T13:38:03;31.00;;;17.48;;
74162;SDS011;62515;52.758;5.076;2023-03-19T13:40:40;31.50;;;18.73;;
74162;SDS011;62515;52.758;5.076;2023-03-19T13:43:23;28.17;;;16.50;;
74162;SDS011;62515;52.758;5.076;2023-03-19T13:49:07;38.58;;;17.35;;
74162;SDS011;62515;52.758;5.076;2023-03-19T13:51:49;30.50;;;17.35;;
74162;SDS011;62515;52.758;5.076;2023-03-19T13:54:18;21.90;;;13.48;;
74162;SDS011;62515;52.758;5.076;2023-03-19T13:57:01;24.30;;;14.10;;
74162;SDS011;62515;52.758;5.076;2023-03-19T13:59:31;25.35;;;14.13;;
74162;SDS011;62515;52.758;5.076;2023-03-19T14:01:58;24.48;;;13.68;;
74162;SDS011;62515;52.758;5.076;2023-03-19T14:04:29;29.98;;;13.90;;
74162;SDS011;62515;52.758;5.076;2023-03-19T14:07:08;27.08;;;13.57;;
74162;SDS011;62515;52.758;5.076;2023-03-19T14:09:40;21.40;;;14.10;;
74162;SDS011;62515;52.758;5.076;2023-03-19T14:12:19;23.63;;;14.40;;
74162;SDS011;62515;52.758;5.076;2023-03-19T14:14:49;23.55;;;12.88;;
74162;SDS011;62515;52.758;5.076;2023-03-19T14:17:20;26.85;;;18.20;;
74162;SDS011;62515;52.758;5.076;2023-03-19T14:19:50;30.80;;;15.07;;
74162;SDS011;62515;52.758;5.076;2023-03-19T14:22:34;26.95;;;15.80;;
74162;SDS011;62515;52.758;5.076;2023-03-19T14:25:14;21.52;;;12.05;;
74162;SDS011;62515;52.758;5.076;2023-03-19T14:27:43;27.77;;;14.18;;
74162;SDS011;62515;52.758;5.076;2023-03-19T14:30:16;20.85;;;10.88;;
74162;SDS011;62515;52.758;5.076;2023-03-19T14:32:51;17.95;;;10.18;;
74162;SDS011;62515;52.758;5.076;2023-03-19T14:35:21;16.90;;;10.27;;
74162;SDS011;62515;52.758;5.076;2023-03-19T14:37:52;19.25;;;10.00;;
74162;SDS011;62515;52.758;5.076;2023-03-19T14:40:21;17.67;;;9.95;;
74162;SDS011;62515;52.758;5.076;2023-03-19T14:43:00;13.90;;;10.52;;
74162;SDS011;62515;52.758;5.076;2023-03-19T14:45:40;14.75;;;10.10;;
74162;SDS011;62515;52.758;5.076;2023-03-19T14:48:19;11.73;;;8.85;;
74162;SDS011;62515;52.758;5.076;2023-03-19T14:51:12;13.63;;;12.15;;
74162;SDS011;62515;52.758;5.076;2023-03-19T14:53:49;11.32;;;7.70;;
74162;SDS011;62515;52.758;5.076;2023-03-19T14:56:23;14.02;;;9.45;;
74162;SDS011;62515;52.758;5.076;2023-03-19T14:58:52;17.60;;;9.73;;
74162;SDS011;62515;52.758;5.076;2023-03-19T15:01:20;17.95;;;10.63;;
74162;SDS011;62515;52.758;5.076;2023-03-19T15:03:52;14.25;;;12.65;;
74162;SDS011;62515;52.758;5.076;2023-03-19T15:06:21;12.20;;;8.50;;
74162;SDS011;62515;52.758;5.076;2023-03-19T15:08:49;12.88;;;7.45;;
74162;SDS011;62515;52.758;5.076;2023-03-19T15:11:32;11.32;;;8.23;;
74162;SDS011;62515;52.758;5.076;2023-03-19T15:14:15;11.60;;;7.75;;
74162;SDS011;62515;52.758;5.076;2023-03-19T15:16:52;13.35;;;8.88;;
74162;SDS011;62515;52.758;5.076;2023-03-19T15:19:27;13.77;;;11.50;;
74162;SDS011;62515;52.758;5.076;2023-03-19T15:22:04;13.32;;;8.02;;
74162;SDS011;62515;52.758;5.076;2023-03-19T15:24:37;12.80;;;9.00;;
74162;SDS011;62515;52.758;5.076;2023-03-19T15:27:16;11.02;;;8.15;;
74162;SDS011;62515;52.758;5.076;2023-03-19T15:29:44;10.98;;;9.05;;
74162;SDS011;62515;52.758;5.076;2023-03-19T15:32:32;9.55;;;7.60;;
74162;SDS011;62515;52.758;5.076;2023-03-19T15:35:21;9.88;;;7.38;;
74162;SDS011;62515;52.758;5.076;2023-03-19T15:37:52;12.32;;;7.13;;
74162;SDS011;62515;52.758;5.076;2023-03-19T15:40:23;8.43;;;7.13;;
74162;SDS011;62515;52.758;5.076;2023-03-19T15:42:54;8.70;;;7.40;;
74162;SDS011;62515;52.758;5.076;2023-03-19T15:45:25;10.48;;;7.13;;
74162;SDS011;62515;52.758;5.076;2023-03-19T15:47:55;9.05;;;8.05;;
74162;SDS011;62515;52.758;5.076;2023-03-19T15:50:26;8.57;;;7.65;;
74162;SDS011;62515;52.758;5.076;2023-03-19T15:52:56;9.48;;;7.28;;
74162;SDS011;62515;52.758;5.076;2023-03-19T15:55:28;10.95;;;8.27;;